Kota Waris — S6RJ — position and weather

sailwx.info

Track history (hours):
 
Tides and Currents Weather Stations Pressure Air Temp Water Temp Dewpoint Dewpoint Depression Visibility Wind Speed Wind Dir Waves Ship Positions

Kota Waris

Last reported at 2015-Jul-02 11:05 UTC. Time now 2015-Jul-03 17:25 UTC.
Position N 01°16' E 104°10'.

Length 185 m; draft 6.4 m.

Type: Ship (hazmat cat A). MMSI: 564482000.

Date/timePositionNaut miles runAvg speedWind from/ knotsBaromVisibWave heightAir tempDewpointWater temp
2015-Jul-02 11:05N 01°16' E 104°10'815.8
2015-Jul-02 10:33N 01°15' E 104°02'1313.4
2015-Jul-02 09:33N 01°12' E 103°49'6 6.2
2015-Jul-02 08:33N 01°17' E 103°46'0 0.5
2015-Jul-02 07:30N 01°17' E 103°46'0 0.0
2015-Jul-02 06:33N 01°17' E 103°46'0 0.0
2015-Jul-02 05:30N 01°17' E 103°46'0 0.0
2015-Jul-02 04:30N 01°17' E 103°46'0 0.0
2015-Jul-02 03:30N 01°17' E 103°46'0 0.0
2015-Jul-02 02:30N 01°17' E 103°46'0 0.0
2015-Jul-02 01:30N 01°17' E 103°46'0 0.0
2015-Jul-02 00:12N 01°17' E 103°46'0 0.0
2015-Jul-01 23:33N 01°17' E 103°46'0 0.0
2015-Jul-01 22:27N 01°17' E 103°46'0 0.0
2015-Jul-01 21:30N 01°17' E 103°46'0 0.0
2015-Jul-01 20:33N 01°17' E 103°46'0 0.0
2015-Jul-01 19:24N 01°17' E 103°46'0 0.0
2015-Jul-01 18:34N 01°17' E 103°46'1 1.2
2015-Jul-01 17:33N 01°16' E 103°46'2 2.5
2015-Jul-01 16:34N 01°14' E 103°48'0 0.1
2015-Jul-01 15:34N 01°14' E 103°47'0 0.1
2015-Jul-01 14:33N 01°14' E 103°47'0 0.1
2015-Jul-01 13:34N 01°14' E 103°47'6 6.0
2015-Jul-01 12:34N 01°13' E 103°53'3 2.7
2015-Jul-01 11:34N 01°14' E 103°56'8 7.6
2015-Jul-01 10:33N 01°16' E 104°03'8 8.0
2015-Jul-01 09:32N 01°17' E 104°11'  
2015-Jun-28 17:33N 16°11' E 108°16'5 3.6
2015-Jun-28 16:16N 16°07' E 108°13'0 0.0
2015-Jun-28 15:34N 16°07' E 108°13'0 0.0
2015-Jun-28 14:33N 16°07' E 108°13'5 4.8
2015-Jun-28 13:33N 16°12' E 108°14'  
2015-Jun-26 09:33N 20°11' E 110°22'  
Track history (hours):
 
Tides and Currents Weather Stations Pressure Air Temp Water Temp Dewpoint Dewpoint Depression Visibility Wind Speed Wind Dir Waves Ship Positions

Kota Waris

Last reported at 2015-Jul-02 11:05 UTC. Time now 2015-Jul-03 17:25 UTC.
Position N 01°16' E 104°10'.

Length 185 m; draft 6.4 m.

Type: Ship (hazmat cat A). MMSI: 564482000.

Date/timePositionNaut miles runAvg speedWind from/ knotsBaromVisibWave heightAir tempDewpointWater temp
2015-Jul-02 11:05N 01°16' E 104°10'815.8
2015-Jul-02 10:33N 01°15' E 104°02'1313.4
2015-Jul-02 09:33N 01°12' E 103°49'6 6.2
2015-Jul-02 08:33N 01°17' E 103°46'0 0.5
2015-Jul-02 07:30N 01°17' E 103°46'0 0.0
2015-Jul-02 06:33N 01°17' E 103°46'0 0.0
2015-Jul-02 05:30N 01°17' E 103°46'0 0.0
2015-Jul-02 04:30N 01°17' E 103°46'0 0.0
2015-Jul-02 03:30N 01°17' E 103°46'0 0.0
2015-Jul-02 02:30N 01°17' E 103°46'0 0.0
2015-Jul-02 01:30N 01°17' E 103°46'0 0.0
2015-Jul-02 00:12N 01°17' E 103°46'0 0.0
2015-Jul-01 23:33N 01°17' E 103°46'0 0.0
2015-Jul-01 22:27N 01°17' E 103°46'0 0.0
2015-Jul-01 21:30N 01°17' E 103°46'0 0.0
2015-Jul-01 20:33N 01°17' E 103°46'0 0.0
2015-Jul-01 19:24N 01°17' E 103°46'0 0.0
2015-Jul-01 18:34N 01°17' E 103°46'1 1.2
2015-Jul-01 17:33N 01°16' E 103°46'2 2.5
2015-Jul-01 16:34N 01°14' E 103°48'0 0.1
2015-Jul-01 15:34N 01°14' E 103°47'0 0.1
2015-Jul-01 14:33N 01°14' E 103°47'0 0.1
2015-Jul-01 13:34N 01°14' E 103°47'6 6.0
2015-Jul-01 12:34N 01°13' E 103°53'3 2.7
2015-Jul-01 11:34N 01°14' E 103°56'8 7.6
2015-Jul-01 10:33N 01°16' E 104°03'8 8.0
2015-Jul-01 09:32N 01°17' E 104°11'  
2015-Jun-28 17:33N 16°11' E 108°16'5 3.6
2015-Jun-28 16:16N 16°07' E 108°13'0 0.0
2015-Jun-28 15:34N 16°07' E 108°13'0 0.0
2015-Jun-28 14:33N 16°07' E 108°13'5 4.8
2015-Jun-28 13:33N 16°12' E 108°14'  
2015-Jun-26 09:33N 20°11' E 110°22'  

Dump ship's entire track history